KTHA/THA METAR and TAF weather

Enter ICAO airport designator
Station Type Date Time Source
KTHA METAR 2022/06/26 07:15 UTC NOAA

KTHA 260715Z AUTO 18005KT 10SM CLR 23/21 A3006 RMK A01


Station Type Date Time Source
KTHA Decoded METAR 2022/06/26 07:15 UTC NOAA

Station name not available
Jun 26, 2022 - 03:15 AM EDT / 2022.06.26 0715 UTC
Wind: from the S (180 degrees) at 6 MPH (5 KT):0
Visibility: 10 mile(s):0
Sky conditions: clear
Temperature: 73 F (23 C)
Dew Point: 69 F (21 C)
Relative Humidity: 88%
Pressure (altimeter): 30.06 in. Hg (1017 hPa)
ob: KTHA 260715Z AUTO 18005KT 10SM CLR 23/21 A3006 RMK A01
cycle: 7

Station Type Date Time Source
KTHA TAF UTC NOAA

Error!

Example: see airport list